createdAt,value
2022-09-23T00:01:39.145Z,4.03
2022-09-23T00:04:07.007Z,5.10
2022-09-23T00:06:35.068Z,4.50
2022-09-23T00:09:02.925Z,5.43
2022-09-23T00:11:30.857Z,4.07
2022-09-23T00:14:01.061Z,5.40
2022-09-23T00:16:30.577Z,4.80
2022-09-23T00:19:00.846Z,4.73
2022-09-23T00:21:29.160Z,4.57
2022-09-23T00:23:57.070Z,5.63
2022-09-23T00:26:25.319Z,4.67
2022-09-23T00:28:53.315Z,4.73
2022-09-23T00:31:23.226Z,4.80
2022-09-23T00:33:54.786Z,4.47
2022-09-23T00:36:25.113Z,4.83
2022-09-23T00:38:53.263Z,6.07
2022-09-23T00:41:21.613Z,4.93
2022-09-23T00:43:51.334Z,6.67
2022-09-23T00:46:22.675Z,4.80
2022-09-23T00:48:56.540Z,6.80
2022-09-23T00:51:30.661Z,4.83
2022-09-23T00:53:58.741Z,4.43
2022-09-23T00:56:26.826Z,5.73
2022-09-23T00:58:55.324Z,4.30
2022-09-23T01:01:25.321Z,5.40
2022-09-23T01:03:54.517Z,4.40
2022-09-23T01:06:22.535Z,7.37
2022-09-23T01:08:52.659Z,4.07
2022-09-23T01:11:35.903Z,5.07
2022-09-23T01:14:20.071Z,4.90
2022-09-23T01:16:54.609Z,6.10
2022-09-23T01:19:43.071Z,5.47
2022-09-23T01:22:17.314Z,5.50
2022-09-23T01:25:10.380Z,6.07
2022-09-23T01:28:10.362Z,3.90
2022-09-23T01:30:45.546Z,7.83
2022-09-23T01:33:21.335Z,4.73
2022-09-23T01:36:02.275Z,5.20
2022-09-23T01:38:38.296Z,4.83
2022-09-23T01:41:18.345Z,6.20
2022-09-23T01:43:54.468Z,4.03
2022-09-23T01:46:29.227Z,4.13
2022-09-23T01:49:03.735Z,3.43
2022-09-23T01:51:37.257Z,4.97
2022-09-23T01:54:11.452Z,5.50
2022-09-23T01:56:43.792Z,4.13
2022-09-23T01:59:16.253Z,4.90
2022-09-23T02:01:50.823Z,4.70
2022-09-23T02:04:23.734Z,4.83
2022-09-23T02:06:55.771Z,9.13
2022-09-23T02:09:28.377Z,3.93
2022-09-23T02:12:01.126Z,5.17
2022-09-23T02:14:33.011Z,5.87
2022-09-23T02:17:08.436Z,3.97
2022-09-23T02:19:43.557Z,4.93
2022-09-23T02:22:18.007Z,4.93
2022-09-23T02:24:46.320Z,4.33
2022-09-23T02:27:21.255Z,5.33
2022-09-23T02:29:55.498Z,4.80
2022-09-23T02:32:32.687Z,4.73
2022-09-23T02:35:06.797Z,4.63
2022-09-23T02:37:44.676Z,4.43
2022-09-23T02:40:23.542Z,3.90
2022-09-23T02:43:07.321Z,4.57
2022-09-23T02:45:37.852Z,4.07
2022-09-23T02:48:11.706Z,4.00
2022-09-23T02:50:39.783Z,4.40
2022-09-23T02:53:08.574Z,4.90
2022-09-23T02:55:36.553Z,4.20
2022-09-23T02:58:05.694Z,5.57
2022-09-23T03:00:46.665Z,4.03
2022-09-23T03:03:30.853Z,4.33
2022-09-23T03:06:01.700Z,3.93
2022-09-23T03:08:38.101Z,5.30
2022-09-23T03:11:08.451Z,4.90
2022-09-23T03:13:53.017Z,4.60
2022-09-23T03:16:30.891Z,5.03
2022-09-23T03:19:12.291Z,4.47
2022-09-23T03:21:44.903Z,5.40
2022-09-23T03:24:14.828Z,4.57
2022-09-23T03:26:47.320Z,4.13
2022-09-23T03:29:17.140Z,6.73
2022-09-23T03:31:46.013Z,4.13
2022-09-23T03:34:21.264Z,4.97
2022-09-23T03:36:53.710Z,4.43
2022-09-23T03:39:30.730Z,5.10
2022-09-23T03:42:03.197Z,5.90
2022-09-23T03:44:37.715Z,4.60
2022-09-23T03:47:06.303Z,4.70
2022-09-23T03:49:39.147Z,4.37
2022-09-23T03:52:07.450Z,5.40
2022-09-23T03:54:35.429Z,4.80
2022-09-23T03:57:04.105Z,4.07
2022-09-23T03:59:32.210Z,6.53
2022-09-23T04:02:01.866Z,4.27
2022-09-23T04:04:32.419Z,3.93
2022-09-23T04:07:02.353Z,6.07
2022-09-23T04:09:30.268Z,6.50
2022-09-23T04:11:58.285Z,6.07
2022-09-23T04:14:26.234Z,4.00
2022-09-23T04:16:54.416Z,4.97
2022-09-23T04:19:22.412Z,4.67
2022-09-23T04:21:50.692Z,5.90
2022-09-23T04:24:20.145Z,4.63
2022-09-23T04:26:51.837Z,4.97
2022-09-23T04:29:19.788Z,4.10
2022-09-23T04:31:48.492Z,4.60
2022-09-23T04:34:17.329Z,4.17
2022-09-23T04:36:45.474Z,6.13
2022-09-23T04:39:14.867Z,6.37
2022-09-23T04:41:44.592Z,6.03
2022-09-23T04:44:12.962Z,4.40
2022-09-23T04:46:41.256Z,5.60
2022-09-23T04:49:09.355Z,3.97
2022-09-23T04:51:37.315Z,3.67
2022-09-23T04:54:06.072Z,4.93
2022-09-23T04:56:34.096Z,4.87
2022-09-23T04:59:03.375Z,3.93
2022-09-23T05:01:34.321Z,6.17
2022-09-23T05:04:05.236Z,4.57
2022-09-23T05:06:34.436Z,4.17
2022-09-23T05:09:05.120Z,4.13
2022-09-23T05:11:33.711Z,5.40
2022-09-23T05:14:03.007Z,5.23
2022-09-23T05:16:32.007Z,6.67
2022-09-23T05:18:59.992Z,3.73
2022-09-23T05:21:28.450Z,4.03
2022-09-23T05:24:00.343Z,3.60
2022-09-23T05:26:30.232Z,6.23
2022-09-23T05:28:59.186Z,3.30
2022-09-23T05:31:30.013Z,4.97
2022-09-23T05:34:00.110Z,4.73
2022-09-23T05:36:33.092Z,3.70
2022-09-23T05:39:04.577Z,3.77
2022-09-23T05:41:33.777Z,10.03
2022-09-23T05:44:02.159Z,6.37
2022-09-23T05:46:33.062Z,3.87
2022-09-23T05:49:03.534Z,4.90
2022-09-23T05:51:32.792Z,4.10
2022-09-23T05:54:02.827Z,4.10
2022-09-23T05:56:32.472Z,3.67
2022-09-23T05:59:01.732Z,4.67
2022-09-23T06:01:33.866Z,4.30
2022-09-23T06:04:04.058Z,3.73
2022-09-23T06:06:33.686Z,3.53
2022-09-23T06:09:02.197Z,3.77
2022-09-23T06:11:31.895Z,3.80
2022-09-23T06:14:02.327Z,6.67
2022-09-23T06:16:33.718Z,3.77
2022-09-23T06:19:06.271Z,4.17
2022-09-23T06:21:35.963Z,3.33
2022-09-23T06:24:04.428Z,4.00
2022-09-23T06:26:35.159Z,3.60
2022-09-23T06:29:04.457Z,5.77
2022-09-23T06:31:33.978Z,3.33
2022-09-23T06:34:16.411Z,6.20
2022-09-23T06:36:46.508Z,6.37
2022-09-23T06:39:15.881Z,4.90
2022-09-23T06:41:45.031Z,4.43
2022-09-23T06:44:13.636Z,6.27
2022-09-23T06:46:43.243Z,5.10
2022-09-23T06:49:13.288Z,4.93
2022-09-23T06:51:41.427Z,8.37
2022-09-23T06:54:09.639Z,4.43
2022-09-23T06:56:39.673Z,5.13
2022-09-23T06:59:10.324Z,7.57
2022-09-23T07:01:38.460Z,8.30
2022-09-23T07:04:08.264Z,5.07
2022-09-23T07:06:36.310Z,4.47
2022-09-23T07:09:04.925Z,6.80
2022-09-23T07:11:32.904Z,5.13
2022-09-23T07:14:00.999Z,4.13
2022-09-23T07:16:28.946Z,4.67
2022-09-23T07:18:57.095Z,3.93
2022-09-23T07:21:27.806Z,4.03
2022-09-23T07:23:58.253Z,6.20
2022-09-23T07:26:27.132Z,4.63
2022-09-23T07:28:56.490Z,10.83
2022-09-23T07:31:37.670Z,3.90
2022-09-23T07:34:07.646Z,4.13
2022-09-23T07:36:40.443Z,3.63
2022-09-23T07:39:09.023Z,3.70
2022-09-23T07:41:38.030Z,4.10
2022-09-23T07:44:06.506Z,4.77
2022-09-23T07:46:36.955Z,4.53
2022-09-23T07:49:06.191Z,4.20
2022-09-23T07:51:37.202Z,9.80
2022-09-23T07:54:07.288Z,4.03
2022-09-23T07:56:36.035Z,3.93
2022-09-23T07:59:04.432Z,4.43
2022-09-23T08:01:34.630Z,3.73
2022-09-23T08:04:05.579Z,3.87
2022-09-23T08:06:33.759Z,5.33
2022-09-23T08:09:03.073Z,3.83
2022-09-23T08:11:31.232Z,4.07
2022-09-23T08:13:59.458Z,4.93
2022-09-23T08:16:27.638Z,6.00
2022-09-23T08:18:55.695Z,3.93
2022-09-23T08:21:24.090Z,4.03
2022-09-23T08:23:52.055Z,4.20
2022-09-23T08:26:22.750Z,4.40
2022-09-23T08:28:54.404Z,3.03
2022-09-23T08:31:22.957Z,3.40
2022-09-23T08:33:56.094Z,3.43
2022-09-23T08:36:24.558Z,15.77
2022-09-23T08:38:52.988Z,18.77
2022-09-23T08:41:30.301Z,7.87
2022-09-23T08:44:03.851Z,3.47
2022-09-23T08:46:37.656Z,3.10
2022-09-23T08:49:07.206Z,4.17
2022-09-23T08:51:39.752Z,4.50
2022-09-23T08:54:10.361Z,3.60
2022-09-23T08:56:40.940Z,5.63
2022-09-23T08:59:13.775Z,8.03
2022-09-23T09:01:44.884Z,4.87
2022-09-23T09:04:25.830Z,3.83
2022-09-23T09:07:07.568Z,2.63
2022-09-23T09:09:49.870Z,3.43
2022-09-23T09:12:23.643Z,3.30
2022-09-23T09:14:58.483Z,2.50
2022-09-23T09:17:36.276Z,2.33
2022-09-23T09:20:18.727Z,2.97
2022-09-23T09:22:54.071Z,3.20
2022-09-23T09:25:34.402Z,2.40
2022-09-23T09:28:10.714Z,2.10
2022-09-23T09:30:39.409Z,2.23
2022-09-23T09:33:15.271Z,2.50
2022-09-23T09:35:57.832Z,2.40
2022-09-23T09:38:25.902Z,3.73
2022-09-23T09:40:56.638Z,2.27
2022-09-23T09:43:25.997Z,3.47
2022-09-23T09:46:04.892Z,2.50
2022-09-23T09:48:39.124Z,2.13
2022-09-23T09:51:21.578Z,2.10
2022-09-23T09:53:51.988Z,2.20
2022-09-23T09:56:26.763Z,1.73
2022-09-23T09:59:01.013Z,2.00
2022-09-23T10:01:31.148Z,1.93
2022-09-23T10:04:02.468Z,2.90
2022-09-23T10:06:32.818Z,2.13
2022-09-23T10:09:16.990Z,2.10
2022-09-23T10:12:04.203Z,1.90
2022-09-23T10:14:33.469Z,1.93
2022-09-23T10:17:06.279Z,2.00
2022-09-23T10:19:36.520Z,1.97
2022-09-23T10:22:16.676Z,1.50
2022-09-23T10:24:49.289Z,2.33
2022-09-23T10:27:26.695Z,1.70
2022-09-23T10:29:57.814Z,1.60
2022-09-23T10:32:28.649Z,3.53
2022-09-23T10:34:59.333Z,1.77
2022-09-23T10:37:33.306Z,3.63
2022-09-23T10:40:19.679Z,18.60
2022-09-23T10:43:15.181Z,2.37
2022-09-23T10:46:06.935Z,1.30
2022-09-23T10:48:47.669Z,1.53
2022-09-23T10:51:23.963Z,1.67
2022-09-23T10:54:01.596Z,1.40
2022-09-23T10:56:36.968Z,1.93
2022-09-23T10:59:42.959Z,1.33
2022-09-23T11:02:31.175Z,1.10
2022-09-23T11:05:30.511Z,1.53
2022-09-23T11:08:11.908Z,1.23
2022-09-23T11:10:57.409Z,2.03
2022-09-23T11:13:43.102Z,1.47
2022-09-23T11:16:22.043Z,2.23
2022-09-23T11:19:06.467Z,1.57
2022-09-23T11:21:53.267Z,1.23
2022-09-23T11:24:39.262Z,1.50
2022-09-23T11:27:19.145Z,1.57
2022-09-23T11:30:10.163Z,1.70
2022-09-23T11:33:07.303Z,1.37
2022-09-23T11:35:42.713Z,1.33
2022-09-23T11:38:15.681Z,2.83
2022-09-23T11:40:46.838Z,2.00
2022-09-23T11:43:21.609Z,1.30
2022-09-23T11:45:58.449Z,1.57
2022-09-23T11:48:30.917Z,1.90
2022-09-23T11:51:04.257Z,2.30
2022-09-23T11:53:43.185Z,1.63
2022-09-23T11:56:31.690Z,1.83
2022-09-23T11:59:07.275Z,1.70
2022-09-23T12:01:44.254Z,2.20
2022-09-23T12:04:21.414Z,1.57
2022-09-23T12:06:55.388Z,1.40
2022-09-23T12:09:54.055Z,3.03
2022-09-23T12:12:27.122Z,1.40
2022-09-23T12:15:02.556Z,1.40
2022-09-23T12:18:03.373Z,1.37
2022-09-23T12:21:01.090Z,1.57
2022-09-23T12:23:51.785Z,1.73
2022-09-23T12:26:23.021Z,1.60
2022-09-23T12:28:53.930Z,1.40
2022-09-23T12:31:30.423Z,1.77
2022-09-23T12:34:00.177Z,2.10
2022-09-23T12:36:34.611Z,1.60
2022-09-23T12:39:07.463Z,1.77
2022-09-23T12:41:40.815Z,1.50
2022-09-23T12:44:27.405Z,1.50
2022-09-23T12:47:29.407Z,1.47
2022-09-23T12:49:58.124Z,1.67
2022-09-23T12:52:28.306Z,1.80
2022-09-23T12:54:59.630Z,1.40
2022-09-23T12:57:43.535Z,1.70
2022-09-23T13:00:25.916Z,1.67
2022-09-23T13:03:15.620Z,2.63
2022-09-23T13:06:04.756Z,1.97
2022-09-23T13:08:33.616Z,1.50
2022-09-23T13:11:06.075Z,1.60
2022-09-23T13:13:37.468Z,1.60
2022-09-23T13:16:21.383Z,1.63
2022-09-23T13:18:54.421Z,1.60
2022-09-23T13:21:55.746Z,2.00
2022-09-23T13:24:42.936Z,1.40
2022-09-23T13:27:27.666Z,1.40
2022-09-23T13:30:00.439Z,1.80
2022-09-23T13:32:32.752Z,3.90
2022-09-23T13:35:04.144Z,1.50
2022-09-23T13:37:41.610Z,1.30
2022-09-23T13:40:17.200Z,1.30
2022-09-23T13:42:51.637Z,2.83
2022-09-23T13:45:22.058Z,1.60
2022-09-23T13:47:51.977Z,1.43
2022-09-23T13:50:22.257Z,1.50
2022-09-23T13:52:54.563Z,2.77
2022-09-23T13:55:27.660Z,1.67
2022-09-23T13:58:02.235Z,1.40
2022-09-23T14:00:36.488Z,2.80
2022-09-23T14:03:17.207Z,1.93
2022-09-23T14:05:45.969Z,1.47
2022-09-23T14:08:17.058Z,1.77
2022-09-23T14:10:46.810Z,2.97
2022-09-23T14:13:25.850Z,3.00
2022-09-23T14:15:58.184Z,1.43
2022-09-23T14:18:34.551Z,1.73
2022-09-23T14:21:02.684Z,1.57
2022-09-23T14:23:30.999Z,1.83
2022-09-23T14:25:59.839Z,1.80
2022-09-23T14:28:29.263Z,1.43
2022-09-23T14:30:58.501Z,2.03
2022-09-23T14:33:29.062Z,1.10
2022-09-23T14:36:03.847Z,1.63
2022-09-23T14:38:49.984Z,1.00
2022-09-23T14:41:23.753Z,1.90
2022-09-23T14:43:59.015Z,1.30
2022-09-23T14:46:28.965Z,2.43
2022-09-23T14:49:02.322Z,1.70
2022-09-23T14:51:35.296Z,2.00
2022-09-23T14:54:31.095Z,1.50
2022-09-23T14:56:59.119Z,1.00
2022-09-23T14:59:33.023Z,1.60
2022-09-23T15:02:01.292Z,3.57
2022-09-23T15:04:32.376Z,1.83
2022-09-23T15:07:04.597Z,1.63
2022-09-23T15:09:36.339Z,1.70
2022-09-23T15:12:07.696Z,1.80
2022-09-23T15:14:41.248Z,1.50
2022-09-23T15:17:32.426Z,2.00
2022-09-23T15:20:03.332Z,1.20
2022-09-23T15:22:31.241Z,2.10
2022-09-23T15:25:17.097Z,6.23
2022-09-23T15:27:58.395Z,2.17
2022-09-23T15:30:27.919Z,2.00
2022-09-23T15:32:56.079Z,1.43
2022-09-23T15:35:26.570Z,1.50
2022-09-23T15:37:58.205Z,1.40
2022-09-23T15:40:29.356Z,1.50
2022-09-23T15:42:58.864Z,1.57
2022-09-23T15:45:37.621Z,1.40
2022-09-23T15:48:11.370Z,1.33
2022-09-23T15:50:40.359Z,1.40
2022-09-23T15:53:08.793Z,1.77
2022-09-23T15:55:36.769Z,3.40
2022-09-23T15:58:04.736Z,2.40
2022-09-23T16:00:36.295Z,1.67
2022-09-23T16:03:06.519Z,1.53
2022-09-23T16:05:38.161Z,2.63
2022-09-23T16:08:09.281Z,1.77
2022-09-23T16:10:38.425Z,1.60
2022-09-23T16:13:11.328Z,2.23
2022-09-23T16:15:41.233Z,1.97
2022-09-23T16:18:10.584Z,1.13
2022-09-23T16:20:40.205Z,2.43
2022-09-23T16:23:10.026Z,1.97
2022-09-23T16:25:38.549Z,1.70
2022-09-23T16:28:06.797Z,2.17
2022-09-23T16:30:35.532Z,1.73
2022-09-23T16:33:04.908Z,2.93
2022-09-23T16:35:34.569Z,2.03
2022-09-23T16:38:02.501Z,2.13
2022-09-23T16:40:31.874Z,2.60
2022-09-23T16:43:02.128Z,2.83
2022-09-23T16:45:31.019Z,3.40
2022-09-23T16:47:59.426Z,2.27
2022-09-23T16:50:29.500Z,2.60
2022-09-23T16:52:57.400Z,4.90
2022-09-23T16:55:27.073Z,4.07
2022-09-23T16:57:56.142Z,4.17
2022-09-23T17:00:42.367Z,3.60
2022-09-23T17:03:30.807Z,6.67
2022-09-23T17:06:02.454Z,3.57
2022-09-23T17:08:32.558Z,3.03
2022-09-23T17:11:01.264Z,4.60
2022-09-23T17:13:31.141Z,2.90
2022-09-23T17:15:59.680Z,3.37
2022-09-23T17:18:28.145Z,3.73
2022-09-23T17:21:06.322Z,3.93
2022-09-23T17:23:35.881Z,3.63
2022-09-23T17:26:05.383Z,3.70
2022-09-23T17:28:33.276Z,5.37
2022-09-23T17:31:03.253Z,3.87
2022-09-23T17:33:32.936Z,5.00
2022-09-23T17:36:01.538Z,7.33
2022-09-23T17:38:30.840Z,6.70
2022-09-23T17:41:02.003Z,5.53
2022-09-23T17:43:31.408Z,3.63
2022-09-23T17:46:06.288Z,5.87
2022-09-23T17:48:35.921Z,4.67
2022-09-23T17:51:05.619Z,5.37
2022-09-23T17:53:36.968Z,6.67
2022-09-23T17:56:07.137Z,9.10
2022-09-23T17:58:36.845Z,7.10
2022-09-23T18:01:06.047Z,6.27
2022-09-23T18:03:34.067Z,10.07
2022-09-23T18:06:10.367Z,6.03
2022-09-23T18:08:40.455Z,5.63
2022-09-23T18:11:17.295Z,6.90
2022-09-23T18:13:50.039Z,5.10
2022-09-23T18:16:19.189Z,5.53
2022-09-23T18:18:51.142Z,7.67
2022-09-23T18:21:19.697Z,12.97
2022-09-23T18:23:49.201Z,8.20
2022-09-23T18:26:18.424Z,7.10
2022-09-23T18:28:47.886Z,7.33
2022-09-23T18:31:17.081Z,6.97
2022-09-23T18:33:49.717Z,8.77
2022-09-23T18:36:17.754Z,5.60
2022-09-23T18:38:45.832Z,7.20
2022-09-23T18:41:15.550Z,5.97
2022-09-23T18:43:48.184Z,8.57
2022-09-23T18:46:18.215Z,8.37
2022-09-23T18:49:04.686Z,6.23
2022-09-23T18:51:34.711Z,6.60
2022-09-23T18:54:04.464Z,6.57
2022-09-23T18:56:39.546Z,5.07
2022-09-23T18:59:08.494Z,5.87
2022-09-23T19:01:36.768Z,5.63
2022-09-23T19:04:05.075Z,6.67
2022-09-23T19:06:34.628Z,7.67
2022-09-23T19:09:02.738Z,6.87
2022-09-23T19:11:30.989Z,6.77
2022-09-23T19:14:01.895Z,6.07
2022-09-23T19:16:31.671Z,7.57
2022-09-23T19:19:00.517Z,7.30
2022-09-23T19:21:29.653Z,8.20
2022-09-23T19:24:03.181Z,9.23
2022-09-23T19:26:33.597Z,8.77
2022-09-23T19:29:04.345Z,7.67
2022-09-23T19:31:34.179Z,7.20
2022-09-23T19:34:04.525Z,7.93
2022-09-23T19:36:34.360Z,10.80
2022-09-23T19:39:05.898Z,9.23
2022-09-23T19:41:35.383Z,8.83
2022-09-23T19:44:07.253Z,10.47
2022-09-23T19:46:37.612Z,8.27
2022-09-23T19:49:06.991Z,10.23
2022-09-23T19:51:35.570Z,10.33
2022-09-23T19:54:05.011Z,11.87
2022-09-23T19:56:33.865Z,12.57
2022-09-23T19:59:02.998Z,27.23
2022-09-23T20:01:32.617Z,23.27
2022-09-23T20:04:01.258Z,17.73
2022-09-23T20:06:30.720Z,14.10
2022-09-23T20:08:59.439Z,10.90
2022-09-23T20:11:28.724Z,8.67
2022-09-23T20:14:01.099Z,10.83
2022-09-23T20:16:31.846Z,11.03
2022-09-23T20:19:03.074Z,11.80
2022-09-23T20:21:31.312Z,9.53
2022-09-23T20:23:59.585Z,9.73
2022-09-23T20:26:44.239Z,8.53
2022-09-23T20:29:12.510Z,6.20
2022-09-23T20:31:43.441Z,8.20
2022-09-23T20:34:12.792Z,6.63
2022-09-23T20:36:42.476Z,8.23
2022-09-23T20:39:11.130Z,10.43
2022-09-23T20:41:39.769Z,10.27
2022-09-23T20:44:12.098Z,8.40
2022-09-23T20:46:44.020Z,7.30
2022-09-23T20:49:16.240Z,7.17
2022-09-23T20:51:44.265Z,8.23
2022-09-23T20:54:12.981Z,5.90
2022-09-23T20:56:41.070Z,6.47
2022-09-23T20:59:11.452Z,9.13
2022-09-23T21:01:39.696Z,7.60
2022-09-23T21:04:09.682Z,8.03
2022-09-23T21:06:39.652Z,9.50
2022-09-23T21:09:08.984Z,10.83
2022-09-23T21:11:37.387Z,10.60
2022-09-23T21:14:05.501Z,9.00
2022-09-23T21:16:33.592Z,6.77
2022-09-23T21:19:02.914Z,7.77
2022-09-23T21:21:31.194Z,8.03
2022-09-23T21:24:23.917Z,7.13
2022-09-23T21:26:50.356Z,6.83
2022-09-23T21:29:19.053Z,7.20
2022-09-23T21:31:49.581Z,7.43
2022-09-23T21:34:17.894Z,6.77
2022-09-23T21:36:47.994Z,6.50
2022-09-23T21:39:17.551Z,5.60
2022-09-23T21:41:45.544Z,6.20
2022-09-23T21:44:13.511Z,8.83
2022-09-23T21:46:41.612Z,12.87
2022-09-23T21:49:09.853Z,19.57
2022-09-23T21:51:40.381Z,14.80
2022-09-23T21:54:12.013Z,10.10
2022-09-23T21:56:41.615Z,7.30
2022-09-23T21:59:09.889Z,6.20
2022-09-23T22:01:40.021Z,6.43
2022-09-23T22:04:14.411Z,12.90
2022-09-23T22:06:42.735Z,9.23
2022-09-23T22:09:13.477Z,6.17
2022-09-23T22:12:00.654Z,6.43
2022-09-23T22:14:30.391Z,13.97
2022-09-23T22:17:01.402Z,10.33
2022-09-23T22:19:34.972Z,7.37
2022-09-23T22:22:06.895Z,5.23
2022-09-23T22:24:34.817Z,5.87
2022-09-23T22:27:04.224Z,7.70
2022-09-23T22:29:49.504Z,7.03
2022-09-23T22:32:36.585Z,5.80
2022-09-23T22:35:04.966Z,5.83
2022-09-23T22:37:35.710Z,6.00
2022-09-23T22:40:04.716Z,7.07
2022-09-23T22:42:34.559Z,5.43
2022-09-23T22:45:03.944Z,7.43
2022-09-23T22:47:35.641Z,7.20
2022-09-23T22:50:03.609Z,8.13
2022-09-23T22:52:33.278Z,5.60
2022-09-23T22:55:01.253Z,5.27
2022-09-23T22:57:29.321Z,7.27
2022-09-23T22:59:58.594Z,6.10
2022-09-23T23:02:26.617Z,7.20
2022-09-23T23:04:56.061Z,6.40
2022-09-23T23:07:24.669Z,5.63
2022-09-23T23:09:53.843Z,5.63
2022-09-23T23:12:22.379Z,7.47
2022-09-23T23:14:50.809Z,5.97
2022-09-23T23:17:20.052Z,5.73
2022-09-23T23:19:50.625Z,6.10
2022-09-23T23:22:18.662Z,10.43
2022-09-23T23:24:46.529Z,6.30
2022-09-23T23:27:14.387Z,7.40
2022-09-23T23:29:42.331Z,6.33
2022-09-23T23:32:10.724Z,6.00
2022-09-23T23:34:40.003Z,5.73
2022-09-23T23:37:07.923Z,5.80
2022-09-23T23:39:35.852Z,6.27
2022-09-23T23:42:04.753Z,6.57
2022-09-23T23:44:34.486Z,6.57
2022-09-23T23:47:02.676Z,6.17
2022-09-23T23:49:30.843Z,7.13
2022-09-23T23:52:00.158Z,6.43
2022-09-23T23:54:28.072Z,6.90
2022-09-23T23:56:56.063Z,9.70
2022-09-23T23:59:24.433Z,5.93
